Time;durP1;ratioP1;P1;durP2;ratioP2;P2;SDS_P1;SDS_P2;PMS_P1;PMS_P2;Temp;Humidity;BMP_temperature;BMP_pressure;BME280_temperature;BME280_humidity;BME280_pressure;Samples;Min_cycle;Max_cycle;Signal;HPM_P1;HPM_P2
2022/10/22 00:02:07;;;;;;;8.82;3.40;;;;;;;24.63;45.16;100844.41;5091856;28;20058;-72
2022/10/22 00:04:33;;;;;;;6.90;2.83;;;;;;;24.85;44.89;100841.97;5091718;28;20024;-73
2022/10/22 00:06:59;;;;;;;4.25;2.88;;;;;;;25.17;43.96;100846.84;5087692;28;20031;-72
2022/10/22 00:09:24;;;;;;;12.02;3.00;;;;;;;24.47;45.03;100842.75;5090587;28;20105;-72
2022/10/22 00:11:50;;;;;;;11.10;3.38;;;;;;;24.80;45.20;100852.09;5089891;28;20115;-72
2022/10/22 00:14:15;;;;;;;7.82;3.47;;;;;;;24.19;46.17;100851.78;5089596;28;20036;-72
2022/10/22 00:16:41;;;;;;;12.45;3.55;;;;;;;24.49;45.38;100845.31;5089725;28;20039;-72
2022/10/22 00:19:08;;;;;;;6.30;3.08;;;;;;;24.58;45.72;100842.03;5088434;28;20035;-72
2022/10/22 00:21:34;;;;;;;8.68;3.40;;;;;;;24.37;46.65;100849.69;5090907;28;20035;-72
2022/10/22 00:24:00;;;;;;;8.15;3.63;;;;;;;24.42;46.26;100854.72;5090023;28;20480;-72
2022/10/22 00:26:26;;;;;;;8.73;3.95;;;;;;;24.50;46.06;100855.06;5089533;28;20024;-72
2022/10/22 00:28:52;;;;;;;15.30;4.55;;;;;;;24.41;45.96;100856.50;5086364;28;20038;-72
2022/10/22 00:31:19;;;;;;;12.85;3.75;;;;;;;24.26;46.83;100846.88;5091439;28;20028;-72
2022/10/22 00:33:46;;;;;;;10.23;3.72;;;;;;;24.69;45.96;100860.03;5090369;28;20127;-72
2022/10/22 00:36:11;;;;;;;10.27;3.60;;;;;;;24.39;46.47;100859.28;5108494;28;20115;-72
2022/10/22 00:38:37;;;;;;;9.68;3.85;;;;;;;24.36;46.29;100861.34;5092348;28;20120;-72
2022/10/22 00:41:02;;;;;;;12.07;4.07;;;;;;;24.14;47.23;100860.09;5093510;28;20073;-72
2022/10/22 00:43:28;;;;;;;10.40;3.60;;;;;;;23.90;47.47;100859.06;5091779;28;20480;-72
2022/10/22 00:45:53;;;;;;;10.27;3.70;;;;;;;23.47;48.17;100866.19;5094275;28;20561;-71
2022/10/22 00:48:28;;;;;;;9.30;3.88;;;;;;;23.84;48.07;100868.31;5092660;28;20441;-72
2022/10/22 00:51:02;;;;;;;7.40;3.58;;;;;;;24.14;47.08;100865.44;5091665;28;20036;-72
2022/10/22 00:53:40;;;;;;;10.80;3.88;;;;;;;23.72;48.18;100872.63;5093466;28;20043;-72
2022/10/22 00:56:07;;;;;;;6.32;2.88;;;;;;;23.96;47.52;100863.97;5093162;28;20073;-72
2022/10/22 00:58:37;;;;;;;11.32;3.33;;;;;;;23.75;47.91;100875.06;5094069;28;20135;-72
2022/10/22 01:01:05;;;;;;;8.98;3.85;;;;;;;24.30;46.85;100864.41;5092990;28;20106;-72
2022/10/22 01:03:31;;;;;;;7.18;2.95;;;;;;;24.11;47.12;100860.31;5089908;27;20070;-72
2022/10/22 01:05:59;;;;;;;8.10;3.95;;;;;;;24.10;46.91;100863.94;5091714;28;20028;-72
2022/10/22 01:08:35;;;;;;;12.57;3.78;;;;;;;23.77;48.26;100865.19;5094154;28;20115;-72
2022/10/22 01:11:03;;;;;;;14.13;3.45;;;;;;;24.41;46.78;100872.53;5092683;28;20031;-72
2022/10/22 01:13:56;;;;;;;8.52;3.42;;;;;;;24.55;46.04;100869.81;5093408;28;20028;-72
2022/10/22 01:16:38;;;;;;;15.45;3.72;;;;;;;24.99;44.96;100873.06;5074456;28;20032;-72
2022/10/22 01:19:22;;;;;;;9.77;3.15;;;;;;;24.40;46.80;100878.88;5074808;28;20103;-72
2022/10/22 01:21:54;;;;;;;9.52;2.90;;;;;;;24.17;46.89;100881.25;5108854;27;20032;-72
2022/10/22 01:24:30;;;;;;;11.02;3.53;;;;;;;24.19;46.78;100882.03;5074473;28;20029;-72
2022/10/22 01:27:15;;;;;;;10.68;2.90;;;;;;;22.68;50.23;100888.81;5095067;28;20043;-72
2022/10/22 01:29:51;;;;;;;11.90;3.00;;;;;;;24.22;47.15;100879.13;5091639;28;20115;-72
2022/10/22 01:32:23;;;;;;;8.98;3.10;;;;;;;23.92;47.76;100897.16;5091133;28;20031;-72
2022/10/22 01:34:54;;;;;;;13.52;2.95;;;;;;;23.96;47.60;100888.00;5092948;28;20118;-72
2022/10/22 01:37:22;;;;;;;7.65;2.63;;;;;;;23.89;47.85;100879.53;5092535;28;20075;-72
2022/10/22 01:39:50;;;;;;;15.00;3.17;;;;;;;23.14;49.18;100879.84;5092908;28;20032;-72
2022/10/22 01:42:15;;;;;;;12.27;3.13;;;;;;;23.92;47.49;100881.16;5093768;28;20015;-72
2022/10/22 01:44:41;;;;;;;9.25;3.17;;;;;;;23.25;49.17;100876.53;5108448;28;20536;-72
2022/10/22 01:47:16;;;;;;;9.50;2.97;;;;;;;23.51;49.09;100872.19;5102189;27;20051;-72
2022/10/22 01:49:53;;;;;;;11.70;2.75;;;;;;;23.37;48.48;100870.41;5093378;28;20044;-72
2022/10/22 01:52:32;;;;;;;10.32;2.80;;;;;;;23.65;47.71;100868.63;5090739;28;20039;-72
2022/10/22 01:55:16;;;;;;;9.88;3.20;;;;;;;23.92;47.29;100868.69;5094218;28;20464;-72
2022/10/22 01:58:06;;;;;;;9.48;2.92;;;;;;;23.62;48.25;100864.34;5092063;28;20051;-72
2022/10/22 02:00:32;;;;;;;9.35;3.50;;;;;;;23.38;48.36;100864.97;5093642;28;20127;-72
2022/10/22 02:03:06;;;;;;;8.75;2.53;;;;;;;23.32;49.30;100869.84;5091322;28;20031;-72
2022/10/22 02:05:37;;;;;;;9.98;2.92;;;;;;;23.24;48.59;100861.47;5093426;28;20032;-72
2022/10/22 02:08:10;;;;;;;9.07;2.88;;;;;;;22.90;49.88;100866.19;5092521;28;20031;-72
2022/10/22 02:10:38;;;;;;;11.65;2.83;;;;;;;23.07;49.31;100868.69;5091408;28;20488;-72
2022/10/22 02:13:08;;;;;;;11.88;2.45;;;;;;;23.80;47.76;100864.97;5091604;28;20024;-72
2022/10/22 02:15:35;;;;;;;9.68;3.00;;;;;;;23.14;49.05;100874.53;5093297;28;20054;-72
2022/10/22 02:18:03;;;;;;;12.07;3.38;;;;;;;23.50;48.15;100878.47;5092383;28;20035;-72
2022/10/22 02:20:31;;;;;;;11.07;3.08;;;;;;;23.20;49.05;100875.00;5091877;28;20039;-72
2022/10/22 02:22:58;;;;;;;6.20;3.33;;;;;;;23.55;47.82;100869.22;5092614;28;20078;-72
2022/10/22 02:25:27;;;;;;;10.70;2.80;;;;;;;23.64;47.60;100872.25;5091034;28;20024;-72
2022/10/22 02:28:15;;;;;;;11.98;3.20;;;;;;;23.81;47.60;100879.16;5091567;28;20032;-72
2022/10/22 02:30:45;;;;;;;9.65;3.25;;;;;;;23.00;48.76;100878.00;5098333;27;20036;-72
2022/10/22 02:33:20;;;;;;;6.32;2.85;;;;;;;22.70;49.77;100870.94;5106515;28;20032;-72
2022/10/22 02:35:48;;;;;;;10.30;2.80;;;;;;;23.25;48.52;100881.84;5090840;28;20024;-72
2022/10/22 02:38:14;;;;;;;5.47;2.60;;;;;;;23.48;48.35;100875.91;5090555;28;20024;-72
2022/10/22 02:40:40;;;;;;;8.73;2.78;;;;;;;23.97;47.44;100873.72;5091946;28;20027;-71
2022/10/22 02:43:06;;;;;;;13.48;3.65;;;;;;;23.71;46.62;100874.44;5089027;28;20024;-72
2022/10/22 02:45:32;;;;;;;8.75;3.10;;;;;;;23.45;48.69;100886.78;5091406;28;20027;-72
2022/10/22 02:47:58;;;;;;;10.35;3.03;;;;;;;23.31;48.28;100876.13;5092631;28;20098;-72
2022/10/22 02:50:23;;;;;;;14.63;3.08;;;;;;;23.57;48.47;100878.94;5088997;28;20024;-72
2022/10/22 02:52:49;;;;;;;7.32;2.20;;;;;;;23.31;48.97;100871.63;5090782;28;20025;-72
2022/10/22 02:55:14;;;;;;;8.93;3.25;;;;;;;23.36;48.07;100874.88;5086576;28;20316;-72
2022/10/22 02:57:40;;;;;;;15.35;3.03;;;;;;;22.72;50.14;100876.16;5072883;28;20043;-72
2022/10/22 03:00:07;;;;;;;7.60;2.72;;;;;;;23.16;48.57;100873.47;5089938;28;20031;-72
2022/10/22 03:02:32;;;;;;;7.97;2.47;;;;;;;23.18;49.01;100876.88;5090835;28;20089;-72
2022/10/22 03:04:58;;;;;;;11.07;3.03;;;;;;;22.65;50.15;100873.00;5091500;28;20476;-71
2022/10/22 03:07:24;;;;;;;5.00;2.38;;;;;;;23.01;49.11;100874.38;5092976;28;20487;-72
2022/10/22 03:09:49;;;;;;;10.50;2.80;;;;;;;23.59;47.98;100869.03;5089622;28;20020;-72
2022/10/22 03:12:14;;;;;;;11.55;3.00;;;;;;;22.76;49.56;100881.19;5091449;28;20135;-72
2022/10/22 03:14:40;;;;;;;13.63;2.78;;;;;;;22.83;50.13;100877.25;5090501;28;20027;-72
2022/10/22 03:17:05;;;;;;;13.38;2.60;;;;;;;23.28;48.70;100881.66;5090696;28;20032;-72
2022/10/22 03:19:31;;;;;;;8.45;2.17;;;;;;;23.03;48.96;100878.66;5089922;28;20019;-72
2022/10/22 03:22:01;;;;;;;13.88;3.80;;;;;;;23.54;48.40;100878.16;5091394;28;20028;-72
2022/10/22 03:24:30;;;;;;;11.10;2.70;;;;;;;23.50;48.29;100881.16;5090075;28;20035;-72
2022/10/22 03:26:57;;;;;;;8.77;3.08;;;;;;;22.34;51.39;100882.84;5092426;28;20024;-72
2022/10/22 03:29:24;;;;;;;11.80;2.60;;;;;;;22.50;51.67;100886.31;5090079;28;20032;-72
2022/10/22 03:31:51;;;;;;;8.48;2.55;;;;;;;21.78;54.84;100887.78;5088730;28;20024;-71
2022/10/22 03:34:16;;;;;;;15.27;2.58;;;;;;;22.85;51.61;100891.31;5090223;28;20073;-72
2022/10/22 03:36:42;;;;;;;14.65;2.75;;;;;;;22.69;51.96;100893.19;5094374;27;20028;-72
2022/10/22 03:39:10;;;;;;;5.78;2.53;;;;;;;22.97;50.77;100894.16;5090865;28;20024;-72
2022/10/22 03:41:36;;;;;;;10.75;2.55;;;;;;;23.13;49.77;100883.47;5092030;28;20040;-72
2022/10/22 03:44:03;;;;;;;8.75;2.55;;;;;;;22.65;51.35;100889.00;5089758;28;20122;-72
2022/10/22 03:46:28;;;;;;;8.57;2.58;;;;;;;23.25;49.90;100889.84;5072133;28;20013;-71
2022/10/22 03:48:54;;;;;;;7.85;2.58;;;;;;;23.20;49.84;100891.00;5090897;28;20024;-72
2022/10/22 03:51:19;;;;;;;10.63;3.40;;;;;;;22.91;51.32;100897.22;5089448;28;20031;-72
2022/10/22 03:53:45;;;;;;;9.73;2.55;;;;;;;22.44;51.09;100901.78;5090145;28;20118;-72
2022/10/22 03:56:12;;;;;;;7.60;2.20;;;;;;;22.33;52.46;100897.91;5090760;28;20028;-72
2022/10/22 03:58:39;;;;;;;15.27;2.83;;;;;;;22.74;51.35;100896.44;5087174;28;20122;-72
2022/10/22 04:01:06;;;;;;;8.35;2.60;;;;;;;22.96;50.21;100897.81;5070383;28;20459;-72
2022/10/22 04:03:32;;;;;;;11.10;2.60;;;;;;;22.19;52.50;100892.53;5081777;28;20110;-72
2022/10/22 04:06:09;;;;;;;13.90;2.83;;;;;;;22.90;50.88;100892.84;5090230;28;20118;-72
2022/10/22 04:08:35;;;;;;;10.40;2.75;;;;;;;23.63;48.71;100902.53;5091190;28;20036;-72
2022/10/22 04:11:00;;;;;;;12.73;2.42;;;;;;;22.90;51.04;100906.16;5089126;28;20038;-72
2022/10/22 04:13:26;;;;;;;11.75;2.83;;;;;;;23.18;49.63;100911.53;5088335;28;20111;-72
2022/10/22 04:15:52;;;;;;;15.10;3.05;;;;;;;22.79;51.47;100901.47;5090542;28;20073;-72
2022/10/22 04:18:18;;;;;;;17.05;3.28;;;;;;;22.99;50.37;100909.13;5089590;28;20028;-72
2022/10/22 04:20:44;;;;;;;6.32;1.88;;;;;;;22.70;51.46;100909.06;5089205;28;20031;-72
2022/10/22 04:23:09;;;;;;;9.57;2.47;;;;;;;23.58;48.89;100915.34;5089655;28;20039;-72
2022/10/22 04:25:34;;;;;;;12.40;2.60;;;;;;;23.16;49.79;100905.47;5089365;28;20439;-72
2022/10/22 04:28:00;;;;;;;8.45;2.75;;;;;;;22.67;51.20;100913.75;5089146;28;20158;-72
2022/10/22 04:30:26;;;;;;;7.00;2.47;;;;;;;22.31;52.42;100918.44;5088716;28;20028;-72
2022/10/22 04:32:51;;;;;;;11.55;2.70;;;;;;;22.96;51.28;100921.78;5089515;28;20078;-72
2022/10/22 04:35:16;;;;;;;11.35;2.88;;;;;;;23.44;49.69;100919.72;5089277;28;20503;-72
2022/10/22 04:37:42;;;;;;;8.75;2.50;;;;;;;22.95;50.36;100934.25;5091591;28;20476;-72
2022/10/22 04:40:08;;;;;;;9.23;2.70;;;;;;;23.34;49.96;100918.59;5087998;28;20057;-72
2022/10/22 04:42:33;;;;;;;13.77;2.85;;;;;;;23.75;48.02;100923.09;5087140;28;20069;-72
2022/10/22 04:44:59;;;;;;;10.20;2.97;;;;;;;23.52;48.92;100921.91;5087812;28;20433;-72
2022/10/22 04:47:24;;;;;;;9.35;2.75;;;;;;;23.85;47.93;100924.25;5105815;28;20357;-73
2022/10/22 04:49:49;;;;;;;9.07;2.70;;;;;;;23.20;49.12;100933.66;5089706;28;20373;-72
2022/10/22 04:52:15;;;;;;;7.78;3.10;;;;;;;23.88;47.58;100933.91;5085579;28;20533;-72
2022/10/22 04:54:40;;;;;;;11.88;2.65;;;;;;;23.63;47.75;100934.56;5089167;28;20028;-72
2022/10/22 04:57:05;;;;;;;11.32;2.50;;;;;;;24.25;46.37;100936.84;5091171;28;20124;-72
2022/10/22 04:59:31;;;;;;;11.38;3.30;;;;;;;22.98;50.66;100938.53;5089227;28;20084;-72
2022/10/22 05:01:56;;;;;;;11.70;2.53;;;;;;;23.75;48.08;100944.44;5088740;28;20035;-72
2022/10/22 05:04:22;;;;;;;11.07;3.30;;;;;;;22.76;50.41;100947.81;5090943;28;20036;-72
2022/10/22 05:06:47;;;;;;;9.75;3.30;;;;;;;22.99;49.04;100948.25;5095458;28;20119;-72
2022/10/22 05:09:16;;;;;;;9.27;2.95;;;;;;;23.26;48.86;100952.88;5106182;28;20024;-72
2022/10/22 05:11:47;;;;;;;13.27;3.00;;;;;;;23.50;48.20;100948.66;5089363;28;20467;-72
2022/10/22 05:14:14;;;;;;;13.60;3.08;;;;;;;22.73;49.92;100948.00;5087510;28;20069;-72
2022/10/22 05:16:40;;;;;;;12.98;2.80;;;;;;;22.97;49.36;100947.47;5089245;28;20028;-72
2022/10/22 05:19:06;;;;;;;10.90;2.78;;;;;;;22.85;49.69;100949.09;5089895;28;20016;-71
2022/10/22 05:21:32;;;;;;;17.73;3.35;;;;;;;23.08;49.11;100950.38;5090224;28;20055;-72
2022/10/22 05:24:00;;;;;;;11.85;2.67;;;;;;;22.08;51.43;100953.50;5091267;28;20122;-72
2022/10/22 05:26:27;;;;;;;15.52;3.35;;;;;;;22.66;50.29;100947.50;5093819;28;20016;-72
2022/10/22 05:28:53;;;;;;;9.98;3.00;;;;;;;21.58;53.58;100955.38;5092257;28;20031;-72
2022/10/22 05:31:19;;;;;;;8.05;2.58;;;;;;;22.88;49.97;100949.75;5089809;28;20020;-72
2022/10/22 05:33:44;;;;;;;14.77;2.63;;;;;;;22.59;50.62;100953.31;5093829;28;20055;-72
2022/10/22 05:36:19;;;;;;;11.02;2.40;;;;;;;22.47;50.37;100955.72;5093221;28;20103;-72
2022/10/22 05:38:45;;;;;;;14.68;2.97;;;;;;;23.01;49.32;100954.31;5093066;28;20109;-72
2022/10/22 05:41:16;;;;;;;10.23;2.60;;;;;;;22.62;51.06;100953.97;5092515;28;20479;-72
2022/10/22 05:43:41;;;;;;;5.80;2.53;;;;;;;22.20;50.69;100963.44;5091206;28;20115;-72
2022/10/22 05:46:09;;;;;;;9.23;2.75;;;;;;;23.19;48.31;100963.91;5080351;28;20116;-72
2022/10/22 05:48:35;;;;;;;10.38;2.65;;;;;;;22.47;50.95;100971.69;5089927;28;20431;-72
2022/10/22 05:51:06;;;;;;;10.65;2.53;;;;;;;22.91;49.51;100975.34;5073548;28;20024;-72
2022/10/22 05:53:32;;;;;;;8.43;2.97;;;;;;;22.34;49.82;100976.03;5090777;28;20020;-71
2022/10/22 05:56:07;;;;;;;10.23;2.70;;;;;;;22.75;50.32;100971.88;5082833;28;20055;-72
2022/10/22 05:58:33;;;;;;;7.75;2.63;;;;;;;22.86;48.79;100972.97;5091789;28;20079;-72
2022/10/22 06:01:03;;;;;;;13.07;2.58;;;;;;;22.24;52.24;100986.28;5091739;28;20097;-72
2022/10/22 06:03:30;;;;;;;10.82;3.05;;;;;;;22.40;51.81;100991.63;5092945;28;20032;-72
2022/10/22 06:05:59;;;;;;;13.63;2.80;;;;;;;23.08;50.20;100992.13;5091829;28;20016;-72
2022/10/22 06:08:24;;;;;;;14.15;2.58;;;;;;;22.97;49.43;100995.44;5092584;28;20027;-72
2022/10/22 06:10:49;;;;;;;11.15;2.72;;;;;;;22.82;50.27;100992.75;5091821;28;20028;-72
2022/10/22 06:13:15;;;;;;;11.65;2.97;;;;;;;22.11;52.37;101001.25;5092094;28;20035;-72
2022/10/22 06:15:40;;;;;;;11.15;2.63;;;;;;;22.49;52.09;100998.22;5102526;27;20017;-72
2022/10/22 06:18:05;;;;;;;10.20;2.67;;;;;;;21.54;54.26;101009.66;5095650;27;20483;-71
2022/10/22 06:20:36;;;;;;;9.52;2.80;;;;;;;21.92;52.92;101012.06;5091157;28;20032;-72
2022/10/22 06:23:01;;;;;;;9.18;2.63;;;;;;;22.37;51.95;101010.47;5092549;28;20071;-72
2022/10/22 06:25:26;;;;;;;14.68;3.35;;;;;;;22.00;53.17;101009.81;5093214;28;20066;-72
2022/10/22 06:27:52;;;;;;;12.15;2.55;;;;;;;22.10;52.52;101011.00;5091937;28;20032;-72
2022/10/22 06:30:17;;;;;;;10.45;2.55;;;;;;;22.43;52.99;101018.06;5091565;28;20024;-72
2022/10/22 06:32:42;;;;;;;7.78;1.90;;;;;;;21.96;54.17;101016.25;5090224;28;20028;-72
2022/10/22 06:35:08;;;;;;;18.40;3.40;;;;;;;22.43;52.71;101017.22;5089826;28;20028;-72
2022/10/22 06:37:33;;;;;;;15.02;2.83;;;;;;;22.91;51.52;101017.16;5101601;28;20046;-72
2022/10/22 06:39:59;;;;;;;12.05;2.97;;;;;;;23.17;50.71;101018.28;5106632;27;20073;-72
2022/10/22 06:42:24;;;;;;;11.90;2.53;;;;;;;22.75;51.06;101028.72;5096582;28;20483;-72
2022/10/22 06:44:49;;;;;;;11.82;2.33;;;;;;;22.82;51.38;101038.06;5099702;27;20492;-72
2022/10/22 06:47:15;;;;;;;20.15;2.72;;;;;;;23.20;49.82;101029.63;5103222;27;20055;-72
2022/10/22 06:49:41;;;;;;;10.38;2.58;;;;;;;23.10;50.33;101028.41;5087035;28;20036;-72
2022/10/22 06:52:06;;;;;;;13.40;2.55;;;;;;;21.97;53.33;101034.81;5090474;28;20039;-72
2022/10/22 06:54:32;;;;;;;12.40;2.13;;;;;;;23.06;50.61;101042.03;5091189;28;20020;-72
2022/10/22 06:56:57;;;;;;;13.35;2.28;;;;;;;21.87;54.28;101046.88;5093231;28;20069;-72
2022/10/22 06:59:23;;;;;;;8.23;2.15;;;;;;;22.55;53.10;101042.31;5089119;28;20483;-72
2022/10/22 07:01:48;;;;;;;6.25;2.03;;;;;;;23.23;50.31;101044.56;5089612;28;20510;-72
2022/10/22 07:04:13;;;;;;;13.55;2.95;;;;;;;22.43;51.81;101055.38;5090386;28;20477;-72
2022/10/22 07:06:39;;;;;;;14.70;2.42;;;;;;;22.13;53.11;101060.56;5091907;28;20035;-72
2022/10/22 07:09:04;;;;;;;15.95;4.15;;;;;;;22.48;52.42;101071.94;5090433;28;20027;-71
2022/10/22 07:11:38;;;;;;;5.90;1.95;;;;;;;23.89;48.24;101069.03;5091162;28;20024;-72
2022/10/22 07:14:03;;;;;;;9.70;2.05;;;;;;;22.59;51.62;101073.16;5090060;28;20035;-72
2022/10/22 07:16:28;;;;;;;10.35;1.90;;;;;;;22.20;53.42;101075.25;5090523;28;20032;-73
2022/10/22 07:18:54;;;;;;;9.77;1.85;;;;;;;22.56;53.36;101081.31;5091257;28;20039;-72
2022/10/22 07:21:20;;;;;;;10.85;2.03;;;;;;;22.88;52.27;101074.13;5090049;28;20031;-71
2022/10/22 07:23:46;;;;;;;11.10;2.20;;;;;;;23.12;52.05;101085.22;5089821;28;20123;-72
2022/10/22 07:26:15;;;;;;;18.58;2.63;;;;;;;23.31;50.80;101089.44;5091857;28;20130;-72
2022/10/22 07:28:40;;;;;;;10.55;2.45;;;;;;;22.88;51.70;101093.63;5090969;28;20113;-72
2022/10/22 07:31:11;;;;;;;11.20;2.25;;;;;;;23.85;49.15;101097.72;5088815;28;20118;-72
2022/10/22 07:33:37;;;;;;;17.85;2.53;;;;;;;24.57;47.63;101096.81;5091306;28;20036;-72
2022/10/22 07:36:05;;;;;;;10.95;1.92;;;;;;;23.33;49.26;101096.41;5089109;28;20036;-72
2022/10/22 07:38:31;;;;;;;13.48;2.15;;;;;;;23.26;50.14;101111.06;5083604;28;20468;-72
2022/10/22 07:40:57;;;;;;;14.70;2.00;;;;;;;22.46;53.31;101119.13;5078104;28;20046;-72
2022/10/22 07:43:23;;;;;;;7.95;1.75;;;;;;;21.95;54.00;101115.66;5090454;28;20035;-71
2022/10/22 07:45:49;;;;;;;12.65;2.10;;;;;;;20.92;58.97;101119.94;5092145;28;20051;-72
2022/10/22 07:48:15;;;;;;;10.23;1.90;;;;;;;21.65;57.45;101124.31;5090771;28;20471;-72
2022/10/22 07:50:40;;;;;;;14.82;2.80;;;;;;;22.24;54.42;101129.19;5082814;28;20399;-72
2022/10/22 07:53:05;;;;;;;17.85;2.13;;;;;;;22.45;53.52;101128.06;5086599;28;20035;-72
2022/10/22 07:55:32;;;;;;;17.10;2.25;;;;;;;22.55;53.68;101127.56;5090684;28;20024;-72
2022/10/22 07:57:57;;;;;;;17.08;2.60;;;;;;;23.31;50.65;101129.44;5089408;28;20055;-72
2022/10/22 08:00:22;;;;;;;13.85;2.15;;;;;;;22.92;51.44;101146.78;5090849;28;20023;-72
2022/10/22 08:02:48;;;;;;;10.88;2.00;;;;;;;23.81;50.00;101140.69;5090525;28;20049;-72
2022/10/22 08:05:13;;;;;;;8.30;2.85;;;;;;;23.88;49.08;101147.41;5088359;28;20074;-72
2022/10/22 08:07:39;;;;;;;8.68;2.00;;;;;;;23.93;48.18;101150.63;5090790;28;20457;-72
2022/10/22 08:10:05;;;;;;;11.45;1.90;;;;;;;22.60;52.94;101152.09;5089912;28;20427;-72
2022/10/22 08:12:31;;;;;;;7.03;1.83;;;;;;;24.05;48.70;101154.38;5087855;28;20032;-72
2022/10/22 08:14:56;;;;;;;15.30;1.88;;;;;;;21.77;56.79;101162.72;5090631;28;20028;-71
2022/10/22 08:17:21;;;;;;;11.23;1.70;;;;;;;21.76;56.80;101167.19;5090622;28;20028;-72
2022/10/22 08:19:47;;;;;;;18.23;2.00;;;;;;;22.98;53.12;101167.75;5089589;28;20059;-72
2022/10/22 08:22:12;;;;;;;10.00;2.10;;;;;;;23.32;52.48;101160.50;5088371;28;20066;-72
2022/10/22 08:24:38;;;;;;;12.30;2.05;;;;;;;22.92;53.76;101173.44;5090796;28;20028;-72
2022/10/22 08:27:03;;;;;;;14.68;1.80;;;;;;;22.99;53.96;101174.81;5089502;28;20024;-72
2022/10/22 08:29:29;;;;;;;8.95;1.75;;;;;;;22.92;52.63;101168.94;5091752;28;20063;-71
2022/10/22 08:31:54;;;;;;;11.38;1.80;;;;;;;23.27;51.58;101174.09;5087071;28;20032;-71
2022/10/22 08:34:19;;;;;;;10.23;1.92;;;;;;;24.05;50.61;101175.72;5086867;28;20032;-71
2022/10/22 08:36:45;;;;;;;16.73;1.77;;;;;;;23.54;50.92;101182.28;5089593;28;20028;-70
2022/10/22 08:39:11;;;;;;;7.47;1.65;;;;;;;23.34;51.68;101185.25;5088599;28;20035;-71
2022/10/22 08:42:02;;;;;;;10.90;1.77;;;;;;;23.11;51.72;101199.88;5088757;28;20028;-71
2022/10/22 08:44:53;;;;;;;11.23;2.05;;;;;;;23.54;51.47;101192.94;5085109;28;20071;-71
2022/10/22 08:47:48;;;;;;;5.50;1.25;;;;;;;22.83;52.48;101202.31;5070634;28;20476;-71
2022/10/22 08:50:22;;;;;;;10.05;2.15;;;;;;;23.21;51.94;101209.13;5090517;28;20404;-71
2022/10/22 08:52:52;;;;;;;7.00;1.27;;;;;;;22.85;53.86;101210.22;5078516;28;20077;-73
2022/10/22 08:55:18;;;;;;;7.03;2.08;;;;;;;23.76;50.53;101210.34;5091027;28;20107;-71
2022/10/22 08:57:58;;;;;;;9.85;1.85;;;;;;;23.84;49.70;101216.09;5091923;28;20056;-71
2022/10/22 09:00:33;;;;;;;11.32;2.58;;;;;;;23.53;51.18;101220.59;5094067;28;20024;-72
2022/10/22 09:03:18;;;;;;;6.55;1.60;;;;;;;24.44;49.14;101219.63;5109447;28;20023;-71
2022/10/22 09:06:01;;;;;;;9.48;2.22;;;;;;;23.97;50.37;101231.41;5092583;28;20411;-71
2022/10/22 09:08:26;;;;;;;7.57;1.58;;;;;;;23.93;50.13;101229.88;5092232;28;20104;-71
2022/10/22 09:11:04;;;;;;;10.20;2.15;;;;;;;24.15;49.03;101224.09;5091027;28;20119;-71
2022/10/22 09:13:30;;;;;;;10.43;2.30;;;;;;;24.19;48.32;101228.28;5094240;28;20063;-71
2022/10/22 09:16:00;;;;;;;12.07;2.40;;;;;;;23.52;51.84;101250.00;5092243;28;20066;-71
2022/10/22 09:18:45;;;;;;;9.00;2.17;;;;;;;22.83;51.81;101244.97;5094538;28;20032;-71
2022/10/22 09:21:25;;;;;;;7.22;1.92;;;;;;;24.18;49.21;101234.56;5094166;28;20042;-71
2022/10/22 09:24:03;;;;;;;11.25;1.88;;;;;;;23.51;50.06;101243.81;5093029;28;20024;-71
2022/10/22 09:26:32;;;;;;;8.25;1.98;;;;;;;23.84;49.16;101245.44;5091336;28;20028;-71
2022/10/22 09:28:59;;;;;;;12.63;2.10;;;;;;;23.97;49.23;101252.75;5092475;28;20028;-73
2022/10/22 09:31:29;;;;;;;12.82;1.90;;;;;;;22.65;51.68;101264.59;5090252;28;20020;-71
2022/10/22 09:33:56;;;;;;;10.57;1.75;;;;;;;24.81;47.58;101254.75;5088861;28;20081;-71
2022/10/22 09:36:22;;;;;;;10.02;2.35;;;;;;;24.19;48.83;101266.53;5094493;28;20065;-71
2022/10/22 09:38:51;;;;;;;7.57;1.92;;;;;;;24.42;48.04;101261.59;5090379;28;20028;-71
2022/10/22 09:41:19;;;;;;;7.10;1.50;;;;;;;23.74;51.30;101273.66;5090865;28;20162;-71
2022/10/22 09:43:48;;;;;;;8.90;1.40;;;;;;;24.24;49.60;101265.41;5109559;28;20047;-71
2022/10/22 09:46:19;;;;;;;12.45;1.83;;;;;;;23.64;51.01;101273.28;5103674;28;20039;-71
2022/10/22 09:49:03;;;;;;;11.07;1.85;;;;;;;23.66;49.95;101275.91;5093813;28;20081;-71
2022/10/22 09:51:40;;;;;;;8.27;1.90;;;;;;;22.92;51.98;101288.03;5089420;28;20028;-71
2022/10/22 09:54:15;;;;;;;14.20;1.98;;;;;;;23.42;52.38;101278.16;5094044;28;20114;-71
2022/10/22 09:56:45;;;;;;;13.25;2.38;;;;;;;23.81;49.62;101291.00;5100869;27;20044;-71
2022/10/22 09:59:16;;;;;;;7.72;1.80;;;;;;;25.04;47.54;101284.50;5106166;28;20133;-70
2022/10/22 10:01:43;;;;;;;8.82;1.95;;;;;;;23.84;50.30;101285.47;5091141;28;20031;-71
2022/10/22 10:04:14;;;;;;;11.18;1.90;;;;;;;24.66;47.75;101287.78;5089133;28;20032;-71
2022/10/22 10:06:41;;;;;;;13.45;2.08;;;;;;;25.63;46.02;101288.75;5094600;28;20055;-71
2022/10/22 10:09:22;;;;;;;9.70;2.25;;;;;;;24.27;48.26;101297.25;5092230;28;20034;-71
2022/10/22 10:11:57;;;;;;;9.63;1.70;;;;;;;23.95;48.28;101289.38;5085654;28;20126;-71
2022/10/22 10:14:40;;;;;;;10.30;1.70;;;;;;;23.98;49.09;101302.53;5103139;28;20028;-71
2022/10/22 10:17:11;;;;;;;10.07;1.88;;;;;;;24.35;47.50;101316.34;5093307;28;20024;-71
2022/10/22 10:19:46;;;;;;;10.93;1.63;;;;;;;24.15;48.22;101309.53;5089726;28;20036;-70
2022/10/22 10:22:25;;;;;;;12.07;2.08;;;;;;;26.32;43.24;101307.31;5089164;28;20275;-71
2022/10/22 10:25:09;;;;;;;8.98;1.98;;;;;;;23.72;48.80;101329.75;5089445;28;20158;-71
2022/10/22 10:27:55;;;;;;;13.73;2.47;;;;;;;24.40;46.57;101327.63;5106288;27;20032;-71
2022/10/22 10:30:22;;;;;;;9.93;1.83;;;;;;;25.51;45.02;101323.41;5086249;28;20472;-71
2022/10/22 10:33:45;;;;;;;11.70;1.90;;;;;;;25.00;45.17;101334.63;5089207;28;20111;-71
2022/10/22 10:36:27;;;;;;;10.60;2.00;;;;;;;25.76;44.54;101328.94;5058903;28;20179;-71
2022/10/22 10:39:01;;;;;;;10.40;1.80;;;;;;;24.84;45.99;101347.22;5049204;28;20035;-71
2022/10/22 10:41:38;;;;;;;11.52;1.80;;;;;;;25.78;44.50;101335.91;5083207;28;20168;-71
2022/10/22 10:44:39;;;;;;;15.18;1.92;;;;;;;24.99;44.94;101343.63;5092088;28;20387;-71
2022/10/22 10:47:39;;;;;;;10.73;2.03;;;;;;;24.98;44.83;101347.25;5032125;28;20029;-71
2022/10/22 10:50:27;;;;;;;12.82;2.13;;;;;;;24.47;45.66;101353.00;5012885;28;20075;-71
2022/10/22 10:53:01;;;;;;;13.38;2.30;;;;;;;26.11;42.74;101344.50;5096399;28;20069;-71
2022/10/22 10:55:53;;;;;;;13.95;2.67;;;;;;;24.75;45.22;101351.34;5097787;28;20118;-71
2022/10/22 10:58:41;;;;;;;12.85;1.83;;;;;;;26.30;42.12;101346.78;5090496;28;20126;-71
2022/10/22 11:01:36;;;;;;;17.23;1.73;;;;;;;26.37;42.29;101348.06;5089983;28;20024;-72
2022/10/22 11:04:23;;;;;;;15.10;2.30;;;;;;;26.34;41.44;101345.59;5092345;28;20053;-72
2022/10/22 11:06:52;;;;;;;14.07;1.67;;;;;;;25.49;43.73;101353.88;5087741;28;20475;-71
2022/10/22 11:09:29;;;;;;;8.70;1.58;;;;;;;25.29;43.52;101355.97;5107107;28;20056;-71
2022/10/22 11:12:01;;;;;;;11.18;2.08;;;;;;;26.65;40.10;101351.50;5107590;27;20028;-71
2022/10/22 11:14:32;;;;;;;13.43;2.00;;;;;;;25.66;41.75;101366.16;5102558;28;20020;-72
2022/10/22 11:17:03;;;;;;;15.63;2.13;;;;;;;23.54;44.93;101363.69;5103816;27;20070;-72
2022/10/22 11:19:28;;;;;;;14.02;2.63;;;;;;;25.33;41.04;101359.34;5089845;28;20367;-71
2022/10/22 11:22:03;;;;;;;12.10;2.70;;;;;;;24.61;41.84;101362.88;5089119;28;20024;-72
2022/10/22 11:24:49;;;;;;;11.35;2.08;;;;;;;24.95;41.19;101360.81;5090193;28;20104;-71
2022/10/22 11:27:30;;;;;;;11.90;1.63;;;;;;;25.28;40.81;101366.78;5089220;28;20039;-72
2022/10/22 11:30:02;;;;;;;15.35;2.95;;;;;;;24.78;41.16;101367.19;5089784;28;20040;-72
2022/10/22 11:32:29;;;;;;;14.98;2.00;;;;;;;24.44;41.51;101365.69;5089808;28;20403;-71